Time;durP1;ratioP1;P1;durP2;ratioP2;P2;SDS_P1;SDS_P2;PMS_P1;PMS_P2;Temp;Humidity;BMP_temperature;BMP_pressure;BME280_temperature;BME280_humidity;BME280_pressure;Samples;Min_cycle;Max_cycle;Signal;HPM_P1;HPM_P2
2022/03/02 00:01:34;;;;;;;16.30;7.32;;;;;;;;;;4992343;28;20022;-68
2022/03/02 00:03:59;;;;;;;19.23;8.60;;;;;;;;;;4992436;28;20552;-67
2022/03/02 00:06:25;;;;;;;19.35;7.53;;;;;;;;;;4991540;28;20054;-67
2022/03/02 00:08:50;;;;;;;24.90;8.75;;;;;;;;;;4992032;28;20034;-67
2022/03/02 00:11:16;;;;;;;19.83;8.30;;;;;;;;;;4992472;28;20029;-67
2022/03/02 00:13:41;;;;;;;17.67;7.55;;;;;;;;;;4991936;28;20050;-67
2022/03/02 00:16:08;;;;;;;18.30;8.10;;;;;;;;;;4992107;28;20057;-67
2022/03/02 00:18:33;;;;;;;22.25;8.32;;;;;;;;;;4992581;28;20427;-68
2022/03/02 00:20:58;;;;;;;17.00;8.30;;;;;;;;;;4991793;28;20098;-68
2022/03/02 00:23:23;;;;;;;19.98;7.32;;;;;;;;;;4991800;28;20049;-67
2022/03/02 00:25:49;;;;;;;17.27;7.93;;;;;;;;;;4991976;28;20080;-67
2022/03/02 00:28:14;;;;;;;15.38;7.65;;;;;;;;;;4991275;28;20029;-67
2022/03/02 00:30:40;;;;;;;15.65;7.85;;;;;;;;;;4990575;28;20371;-68
2022/03/02 00:33:05;;;;;;;23.58;8.85;;;;;;;;;;4986045;28;20129;-67
2022/03/02 00:35:31;;;;;;;19.27;8.15;;;;;;;;;;4987506;28;20118;-67
2022/03/02 00:37:56;;;;;;;22.50;8.45;;;;;;;;;;4984914;28;20084;-67
2022/03/02 00:42:47;;;;;;;19.92;8.18;;;;;;;;;;5012186;23;20078;-68
2022/03/02 00:45:12;;;;;;;20.80;7.68;;;;;;;;;;4988114;28;20018;-67
2022/03/02 00:47:38;;;;;;;16.10;8.30;;;;;;;;;;4990871;28;20098;-67
2022/03/02 00:50:04;;;;;;;17.42;8.27;;;;;;;;;;4988820;28;20107;-66
2022/03/02 00:52:29;;;;;;;17.98;7.60;;;;;;;;;;5004242;28;20109;-68
2022/03/02 00:54:55;;;;;;;19.80;8.45;;;;;;;;;;5009439;28;20091;-68
2022/03/02 00:57:20;;;;;;;20.90;8.32;;;;;;;;;;5009062;28;20026;-67
2022/03/02 00:59:45;;;;;;;22.13;8.05;;;;;;;;;;5006899;28;20077;-68
2022/03/02 01:02:10;;;;;;;23.43;8.13;;;;;;;;;;5006778;28;20037;-67
2022/03/02 01:04:36;;;;;;;24.77;8.50;;;;;;;;;;5007382;28;20280;-68
2022/03/02 01:07:01;;;;;;;25.02;8.18;;;;;;;;;;5006509;28;20453;-68
2022/03/02 01:09:26;;;;;;;18.52;7.80;;;;;;;;;;5008152;28;20026;-68
2022/03/02 01:11:53;;;;;;;23.13;8.68;;;;;;;;;;5008464;28;20108;-68
2022/03/02 01:14:18;;;;;;;31.10;7.43;;;;;;;;;;5009948;28;20025;-68
2022/03/02 01:16:43;;;;;;;20.88;8.65;;;;;;;;;;5007252;28;20029;-68
2022/03/02 01:19:09;;;;;;;19.08;9.23;;;;;;;;;;5006495;28;20025;-68
2022/03/02 01:21:34;;;;;;;23.33;8.50;;;;;;;;;;5004869;28;20088;-68
2022/03/02 01:23:59;;;;;;;18.08;8.05;;;;;;;;;;5008767;28;20276;-68
2022/03/02 01:26:25;;;;;;;22.25;8.20;;;;;;;;;;5006775;28;20033;-68
2022/03/02 01:28:50;;;;;;;20.25;7.75;;;;;;;;;;5006310;28;20010;-68
2022/03/02 01:31:15;;;;;;;17.70;7.57;;;;;;;;;;5000987;28;20117;-69
2022/03/02 01:33:41;;;;;;;24.02;7.93;;;;;;;;;;5006113;28;20041;-68
2022/03/02 01:36:06;;;;;;;20.42;7.88;;;;;;;;;;5006718;28;20048;-68
2022/03/02 01:38:31;;;;;;;23.55;8.65;;;;;;;;;;5008472;28;20028;-68
2022/03/02 01:40:57;;;;;;;17.77;7.82;;;;;;;;;;5010477;28;20025;-68
2022/03/02 01:43:22;;;;;;;28.88;9.15;;;;;;;;;;5007379;28;20305;-68
2022/03/02 01:45:47;;;;;;;18.33;7.22;;;;;;;;;;5007446;28;20266;-68
2022/03/02 01:48:13;;;;;;;17.88;7.82;;;;;;;;;;5004784;28;20462;-68
2022/03/02 01:50:38;;;;;;;16.88;7.95;;;;;;;;;;5002195;28;20022;-68
2022/03/02 01:53:03;;;;;;;15.25;7.25;;;;;;;;;;5004350;28;20026;-68
2022/03/02 01:55:28;;;;;;;14.32;7.10;;;;;;;;;;5002710;28;20022;-68
2022/03/02 01:57:55;;;;;;;19.17;7.63;;;;;;;;;;5003498;28;20022;-68
2022/03/02 02:00:21;;;;;;;17.73;6.85;;;;;;;;;;5002312;28;20030;-68
2022/03/02 02:02:47;;;;;;;19.40;7.65;;;;;;;;;;5003245;28;20209;-68
2022/03/02 02:05:13;;;;;;;17.83;7.70;;;;;;;;;;5004123;28;20101;-68
2022/03/02 02:07:38;;;;;;;16.25;8.55;;;;;;;;;;5001094;28;20085;-68
2022/03/02 02:10:05;;;;;;;23.23;8.88;;;;;;;;;;5003942;28;20018;-68
2022/03/02 02:12:31;;;;;;;19.55;8.38;;;;;;;;;;5005454;28;20105;-68
2022/03/02 02:14:57;;;;;;;16.90;8.45;;;;;;;;;;5009779;28;20110;-67
2022/03/02 02:17:22;;;;;;;17.92;7.80;;;;;;;;;;5007986;28;20014;-68
2022/03/02 02:19:47;;;;;;;17.85;8.65;;;;;;;;;;5008614;28;20034;-68
2022/03/02 02:22:12;;;;;;;17.70;8.40;;;;;;;;;;5008062;28;20399;-67
2022/03/02 02:24:37;;;;;;;21.55;7.53;;;;;;;;;;5007242;28;20032;-68
2022/03/02 02:27:03;;;;;;;19.52;8.00;;;;;;;;;;5007506;28;20030;-68
2022/03/02 02:29:28;;;;;;;20.63;7.18;;;;;;;;;;5008793;28;20060;-67
2022/03/02 02:31:54;;;;;;;22.33;7.60;;;;;;;;;;5010385;28;20375;-68
2022/03/02 02:34:19;;;;;;;18.38;8.18;;;;;;;;;;5009677;28;20081;-68
2022/03/02 02:36:45;;;;;;;19.25;8.73;;;;;;;;;;5008416;28;20129;-67
2022/03/02 02:39:10;;;;;;;23.40;7.93;;;;;;;;;;5007718;28;20109;-68
2022/03/02 02:41:35;;;;;;;23.02;8.18;;;;;;;;;;5008616;28;20045;-68
2022/03/02 02:44:01;;;;;;;19.67;7.63;;;;;;;;;;5013794;28;20083;-68
2022/03/02 02:46:26;;;;;;;20.05;7.88;;;;;;;;;;5012906;28;20140;-68
2022/03/02 02:48:51;;;;;;;19.70;8.18;;;;;;;;;;5012229;28;20029;-68
2022/03/02 02:51:16;;;;;;;20.55;8.18;;;;;;;;;;5013315;28;20470;-68
2022/03/02 02:53:42;;;;;;;16.65;7.75;;;;;;;;;;5010047;28;20026;-68
2022/03/02 02:56:07;;;;;;;15.38;7.93;;;;;;;;;;5013327;28;20084;-68
2022/03/02 02:58:32;;;;;;;19.15;7.72;;;;;;;;;;5011789;28;20478;-68
2022/03/02 03:00:57;;;;;;;18.58;7.85;;;;;;;;;;5005046;28;20026;-68
2022/03/02 03:03:23;;;;;;;23.20;7.80;;;;;;;;;;5010167;28;20034;-68
2022/03/02 03:05:48;;;;;;;18.67;8.05;;;;;;;;;;5006623;28;20080;-68
2022/03/02 03:08:13;;;;;;;19.13;7.80;;;;;;;;;;5010609;28;20022;-68
2022/03/02 03:10:39;;;;;;;16.13;7.85;;;;;;;;;;5011436;28;20033;-68
2022/03/02 03:13:05;;;;;;;22.48;7.97;;;;;;;;;;5010697;28;20144;-68
2022/03/02 03:15:30;;;;;;;21.60;7.43;;;;;;;;;;5004312;28;20080;-68
2022/03/02 03:17:55;;;;;;;20.00;8.85;;;;;;;;;;5011967;28;20137;-68
2022/03/02 03:20:24;;;;;;;18.48;7.88;;;;;;;;;;5003936;28;20018;-68
2022/03/02 03:22:50;;;;;;;23.15;8.30;;;;;;;;;;5010348;28;20041;-68
2022/03/02 03:25:15;;;;;;;20.17;8.52;;;;;;;;;;5013246;28;20065;-68
2022/03/02 03:27:41;;;;;;;21.75;8.25;;;;;;;;;;5012168;28;20026;-68
2022/03/02 03:30:08;;;;;;;13.95;7.15;;;;;;;;;;5011667;28;20029;-68
2022/03/02 03:32:34;;;;;;;21.05;8.43;;;;;;;;;;5009306;28;20018;-68
2022/03/02 03:34:59;;;;;;;17.90;7.95;;;;;;;;;;5011532;28;20010;-68
2022/03/02 03:37:25;;;;;;;19.88;8.23;;;;;;;;;;5007669;28;20064;-68
2022/03/02 03:39:50;;;;;;;18.83;8.63;;;;;;;;;;5009211;28;20088;-68
2022/03/02 03:42:15;;;;;;;23.00;8.30;;;;;;;;;;5001236;28;20036;-68
2022/03/02 03:44:40;;;;;;;21.05;8.68;;;;;;;;;;5011397;28;20381;-68
2022/03/02 03:47:06;;;;;;;20.25;7.50;;;;;;;;;;5007361;28;20221;-68
2022/03/02 03:49:31;;;;;;;18.95;7.68;;;;;;;;;;5004803;28;20025;-68
2022/03/02 03:51:56;;;;;;;19.95;7.85;;;;;;;;;;5005960;28;20032;-68
2022/03/02 03:54:22;;;;;;;25.58;7.80;;;;;;;;;;5010015;28;20022;-68
2022/03/02 03:56:47;;;;;;;22.52;7.57;;;;;;;;;;5005647;28;20105;-68
2022/03/02 03:59:12;;;;;;;16.15;7.32;;;;;;;;;;5007615;28;20036;-68
2022/03/02 04:01:37;;;;;;;18.05;8.32;;;;;;;;;;5012375;28;20018;-68
2022/03/02 04:04:03;;;;;;;17.05;7.80;;;;;;;;;;5004849;28;20096;-68
2022/03/02 04:06:28;;;;;;;19.48;9.15;;;;;;;;;;5005182;28;20014;-68
2022/03/02 04:08:53;;;;;;;28.17;8.75;;;;;;;;;;5004718;28;20426;-68
2022/03/02 04:11:19;;;;;;;15.07;6.57;;;;;;;;;;5005067;28;20065;-68
2022/03/02 04:13:44;;;;;;;17.38;7.55;;;;;;;;;;5004895;28;20021;-68
2022/03/02 04:16:09;;;;;;;18.48;7.38;;;;;;;;;;5005835;28;20394;-68
2022/03/02 04:18:34;;;;;;;16.95;7.90;;;;;;;;;;5011135;28;20096;-68
2022/03/02 04:21:00;;;;;;;17.67;6.72;;;;;;;;;;5007057;28;20109;-69
2022/03/02 04:23:26;;;;;;;14.98;7.28;;;;;;;;;;5010538;28;20017;-68
2022/03/02 04:25:51;;;;;;;16.23;7.65;;;;;;;;;;5006861;28;20024;-68
2022/03/02 04:28:17;;;;;;;17.92;8.57;;;;;;;;;;4990490;28;20053;-68
2022/03/02 04:30:42;;;;;;;14.23;7.18;;;;;;;;;;5008126;28;20036;-68
2022/03/02 04:33:08;;;;;;;15.02;7.72;;;;;;;;;;5009784;28;20066;-68
2022/03/02 04:35:34;;;;;;;17.40;8.27;;;;;;;;;;5008570;28;20097;-68
2022/03/02 04:37:59;;;;;;;18.45;7.43;;;;;;;;;;5008276;28;20049;-68
2022/03/02 04:40:25;;;;;;;16.25;7.32;;;;;;;;;;5008109;28;20053;-68
2022/03/02 04:42:50;;;;;;;20.13;8.05;;;;;;;;;;5010950;28;20026;-68
2022/03/02 04:45:15;;;;;;;15.60;7.18;;;;;;;;;;5009043;28;20034;-68
2022/03/02 04:47:40;;;;;;;17.42;7.30;;;;;;;;;;5009318;28;20117;-68
2022/03/02 04:50:06;;;;;;;19.35;7.95;;;;;;;;;;5009478;28;20018;-68
2022/03/02 04:52:32;;;;;;;15.90;7.35;;;;;;;;;;5009042;28;20093;-68
2022/03/02 04:55:07;;;;;;;17.58;8.57;;;;;;;;;;5009040;28;20489;-68
2022/03/02 04:58:01;;;;;;;14.98;7.07;;;;;;;;;;5009648;28;20101;-68
2022/03/02 05:00:28;;;;;;;18.30;8.02;;;;;;;;;;4992493;28;20034;-68
2022/03/02 05:02:54;;;;;;;21.75;7.90;;;;;;;;;;5009376;28;20544;-68
2022/03/02 05:05:21;;;;;;;13.65;7.75;;;;;;;;;;5009410;28;20129;-68
2022/03/02 05:07:46;;;;;;;17.13;7.18;;;;;;;;;;5010445;28;20018;-68
2022/03/02 05:10:12;;;;;;;17.95;7.45;;;;;;;;;;5009424;28;20025;-68
2022/03/02 05:12:39;;;;;;;19.90;8.70;;;;;;;;;;5008151;28;20427;-68
2022/03/02 05:15:05;;;;;;;18.15;7.50;;;;;;;;;;5009005;28;20018;-68
2022/03/02 05:17:30;;;;;;;21.23;7.75;;;;;;;;;;5009933;28;20076;-68
2022/03/02 05:19:56;;;;;;;17.17;8.40;;;;;;;;;;5009695;28;20466;-68
2022/03/02 05:22:21;;;;;;;21.90;8.77;;;;;;;;;;5009438;28;20490;-67
2022/03/02 05:24:46;;;;;;;16.42;8.32;;;;;;;;;;5009529;28;20037;-67
2022/03/02 05:27:11;;;;;;;18.48;7.78;;;;;;;;;;5009315;28;20014;-67
2022/03/02 05:29:37;;;;;;;18.85;7.57;;;;;;;;;;5009468;28;20544;-67
2022/03/02 05:32:03;;;;;;;19.35;8.00;;;;;;;;;;5008126;28;20024;-67
2022/03/02 05:34:28;;;;;;;17.70;8.30;;;;;;;;;;5006662;28;20422;-67
2022/03/02 05:36:53;;;;;;;12.98;7.05;;;;;;;;;;5007186;28;20674;-67
2022/03/02 05:39:18;;;;;;;15.13;6.80;;;;;;;;;;5001419;28;21192;-68
2022/03/02 05:41:44;;;;;;;15.18;7.05;;;;;;;;;;5009001;28;20462;-67
2022/03/02 05:44:09;;;;;;;18.40;8.23;;;;;;;;;;5007883;28;20080;-67
2022/03/02 05:46:37;;;;;;;18.85;8.00;;;;;;;;;;5003372;28;20538;-67
2022/03/02 05:49:03;;;;;;;13.60;7.28;;;;;;;;;;5003397;28;20097;-67
2022/03/02 05:51:30;;;;;;;24.40;8.88;;;;;;;;;;5002801;28;20109;-67
2022/03/02 05:53:55;;;;;;;17.13;8.00;;;;;;;;;;5002969;28;20446;-67
2022/03/02 05:56:20;;;;;;;18.08;7.72;;;;;;;;;;5004162;28;20034;-67
2022/03/02 05:58:46;;;;;;;14.38;7.45;;;;;;;;;;5005744;28;20034;-68
2022/03/02 06:01:11;;;;;;;15.60;8.13;;;;;;;;;;5001992;28;20087;-66
2022/03/02 06:03:36;;;;;;;17.60;7.38;;;;;;;;;;5005109;28;20030;-68
2022/03/02 06:06:01;;;;;;;18.30;7.88;;;;;;;;;;5000723;28;20053;-67
2022/03/02 06:08:27;;;;;;;14.85;7.30;;;;;;;;;;5001958;28;20099;-67
2022/03/02 06:10:52;;;;;;;16.88;7.30;;;;;;;;;;5001010;28;20021;-67
2022/03/02 06:13:17;;;;;;;16.05;7.43;;;;;;;;;;5002955;28;20132;-68
2022/03/02 06:15:43;;;;;;;15.38;7.43;;;;;;;;;;5003594;28;20063;-67
2022/03/02 06:18:08;;;;;;;15.20;7.03;;;;;;;;;;5007735;28;20033;-68
2022/03/02 06:20:34;;;;;;;15.40;7.88;;;;;;;;;;5006426;28;20030;-68
2022/03/02 06:22:59;;;;;;;15.85;7.90;;;;;;;;;;5007998;28;20378;-68
2022/03/02 06:25:25;;;;;;;17.75;7.97;;;;;;;;;;5006978;28;20025;-68
2022/03/02 06:27:50;;;;;;;18.52;7.82;;;;;;;;;;5005117;28;20581;-68
2022/03/02 06:30:16;;;;;;;19.40;7.97;;;;;;;;;;5004447;28;20050;-67
2022/03/02 06:32:41;;;;;;;15.63;7.97;;;;;;;;;;5004826;28;20022;-67
2022/03/02 06:35:07;;;;;;;18.88;8.32;;;;;;;;;;5007010;28;20101;-68
2022/03/02 06:37:33;;;;;;;18.20;8.55;;;;;;;;;;5001653;28;20064;-69
2022/03/02 06:39:59;;;;;;;19.77;8.05;;;;;;;;;;5002001;28;20014;-68
2022/03/02 06:42:31;;;;;;;19.45;8.45;;;;;;;;;;5004079;28;20033;-68
2022/03/02 06:44:59;;;;;;;18.98;8.82;;;;;;;;;;5003746;28;20080;-68
2022/03/02 06:47:27;;;;;;;18.67;9.02;;;;;;;;;;5005820;28;20018;-67
2022/03/02 06:50:03;;;;;;;19.75;7.65;;;;;;;;;;5005405;28;20036;-67
2022/03/02 06:52:38;;;;;;;18.58;7.45;;;;;;;;;;5003046;28;20021;-67
2022/03/02 06:55:08;;;;;;;14.63;6.90;;;;;;;;;;5004668;28;20394;-67
2022/03/02 06:57:33;;;;;;;23.10;10.23;;;;;;;;;;5004851;28;20625;-68
2022/03/02 07:00:06;;;;;;;19.67;8.13;;;;;;;;;;5007613;28;20129;-67
2022/03/02 07:02:38;;;;;;;15.43;7.70;;;;;;;;;;5008192;28;20601;-68
2022/03/02 07:05:05;;;;;;;19.40;7.32;;;;;;;;;;5009280;28;20057;-67
2022/03/02 07:07:30;;;;;;;25.50;8.45;;;;;;;;;;5009847;28;20018;-67
2022/03/02 07:09:56;;;;;;;17.90;8.27;;;;;;;;;;5007734;28;20017;-67
2022/03/02 07:12:21;;;;;;;21.27;8.98;;;;;;;;;;5008024;28;20773;-68
2022/03/02 07:14:47;;;;;;;17.50;8.32;;;;;;;;;;5009089;28;20109;-68
2022/03/02 07:17:13;;;;;;;14.88;8.20;;;;;;;;;;5011490;28;20045;-67
2022/03/02 07:19:38;;;;;;;18.13;8.65;;;;;;;;;;5012493;28;20034;-67
2022/03/02 07:22:07;;;;;;;21.75;8.77;;;;;;;;;;5012425;28;20095;-68
2022/03/02 07:24:38;;;;;;;16.50;8.75;;;;;;;;;;5013491;28;20080;-68
2022/03/02 07:27:04;;;;;;;25.58;9.38;;;;;;;;;;5012202;28;20378;-68
2022/03/02 07:29:33;;;;;;;16.85;8.02;;;;;;;;;;5012001;28;20026;-67
2022/03/02 07:31:59;;;;;;;16.38;8.73;;;;;;;;;;5004703;28;20116;-68
2022/03/02 07:34:25;;;;;;;18.95;8.45;;;;;;;;;;5012071;28;20104;-68
2022/03/02 07:36:50;;;;;;;20.13;8.05;;;;;;;;;;5009639;28;20026;-68
2022/03/02 07:39:15;;;;;;;14.43;8.20;;;;;;;;;;5011754;28;20034;-68
2022/03/02 07:41:40;;;;;;;19.30;8.60;;;;;;;;;;5010982;28;20075;-68
2022/03/02 07:44:06;;;;;;;24.75;8.23;;;;;;;;;;5011765;28;20399;-68
2022/03/02 07:46:32;;;;;;;21.25;7.97;;;;;;;;;;5011926;28;20022;-68
2022/03/02 07:48:57;;;;;;;16.70;8.55;;;;;;;;;;5012599;28;20083;-67
2022/03/02 07:51:23;;;;;;;16.02;8.07;;;;;;;;;;5013112;28;20105;-67
2022/03/02 07:53:49;;;;;;;17.92;8.55;;;;;;;;;;5012855;28;20025;-68
2022/03/02 07:56:15;;;;;;;14.18;7.80;;;;;;;;;;5013207;28;20022;-68
2022/03/02 07:58:41;;;;;;;15.95;8.05;;;;;;;;;;5012802;28;20509;-68
2022/03/02 08:01:13;;;;;;;13.25;6.63;;;;;;;;;;5012796;28;20109;-68
2022/03/02 08:03:39;;;;;;;12.50;6.13;;;;;;;;;;5012076;28;20030;-69
2022/03/02 08:06:05;;;;;;;16.08;7.75;;;;;;;;;;5012756;28;20438;-69
2022/03/02 08:08:30;;;;;;;14.50;7.80;;;;;;;;;;5012708;28;20041;-69
2022/03/02 08:10:55;;;;;;;21.45;8.27;;;;;;;;;;5012549;28;20033;-69
2022/03/02 08:13:22;;;;;;;14.77;7.10;;;;;;;;;;5012914;28;20026;-69
2022/03/02 08:15:47;;;;;;;12.93;6.32;;;;;;;;;;5011958;28;20026;-69
2022/03/02 08:18:12;;;;;;;27.53;8.47;;;;;;;;;;5008114;28;20034;-69
2022/03/02 08:20:44;;;;;;;16.67;8.03;;;;;;;;;;5010354;28;20276;-69
2022/03/02 08:23:10;;;;;;;19.00;8.82;;;;;;;;;;5011488;28;20269;-69
2022/03/02 08:25:36;;;;;;;21.73;8.32;;;;;;;;;;5011504;28;20084;-69
2022/03/02 08:28:02;;;;;;;18.50;7.28;;;;;;;;;;5010656;28;20386;-69
2022/03/02 08:30:32;;;;;;;18.38;9.73;;;;;;;;;;5009720;28;20061;-69
2022/03/02 08:32:58;;;;;;;17.10;7.82;;;;;;;;;;5011347;28;20072;-69
2022/03/02 08:35:23;;;;;;;16.50;6.75;;;;;;;;;;5010503;28;20029;-69
2022/03/02 08:37:48;;;;;;;20.83;7.43;;;;;;;;;;5011585;28;20097;-69
2022/03/02 08:40:14;;;;;;;12.38;6.60;;;;;;;;;;5011237;28;20113;-69
2022/03/02 08:42:39;;;;;;;12.10;7.13;;;;;;;;;;5010764;28;20038;-69
2022/03/02 08:45:04;;;;;;;13.18;7.95;;;;;;;;;;5010247;28;20091;-69
2022/03/02 08:47:31;;;;;;;16.40;6.97;;;;;;;;;;5010982;28;20066;-70
2022/03/02 08:49:56;;;;;;;7.50;4.20;;;;;;;;;;5010918;28;20018;-70
2022/03/02 08:52:25;;;;;;;14.02;7.32;;;;;;;;;;5011644;28;20026;-66
2022/03/02 08:54:50;;;;;;;14.25;7.25;;;;;;;;;;5009033;28;20026;-67
2022/03/02 08:57:16;;;;;;;11.43;6.78;;;;;;;;;;5011423;28;20057;-67
2022/03/02 08:59:41;;;;;;;17.65;7.22;;;;;;;;;;5007222;28;20021;-70
2022/03/02 09:02:07;;;;;;;11.15;6.80;;;;;;;;;;5009345;28;20022;-70
2022/03/02 09:04:34;;;;;;;11.07;6.63;;;;;;;;;;5010401;28;20022;-70
2022/03/02 09:07:01;;;;;;;16.55;7.05;;;;;;;;;;5010570;28;20534;-70
2022/03/02 09:09:26;;;;;;;13.52;7.78;;;;;;;;;;5010449;28;20029;-69
2022/03/02 09:11:51;;;;;;;15.25;7.90;;;;;;;;;;5010845;28;20096;-70
2022/03/02 09:14:18;;;;;;;13.10;6.60;;;;;;;;;;5008800;28;20030;-70
2022/03/02 09:16:44;;;;;;;15.68;7.55;;;;;;;;;;5010931;28;20030;-68
2022/03/02 09:19:10;;;;;;;12.50;6.30;;;;;;;;;;5010341;28;20029;-67
2022/03/02 09:21:36;;;;;;;19.95;7.47;;;;;;;;;;5010227;28;20026;-68
2022/03/02 09:24:02;;;;;;;14.52;7.28;;;;;;;;;;5010317;28;20025;-68
2022/03/02 09:26:27;;;;;;;11.23;7.13;;;;;;;;;;5010796;28;20100;-68
2022/03/02 09:28:52;;;;;;;12.25;6.60;;;;;;;;;;5009915;28;20017;-68
2022/03/02 09:31:19;;;;;;;13.90;7.03;;;;;;;;;;5010741;28;20105;-68
2022/03/02 09:33:47;;;;;;;11.52;6.50;;;;;;;;;;5009847;28;20613;-69
2022/03/02 09:36:12;;;;;;;9.38;4.63;;;;;;;;;;5010393;28;20025;-68
2022/03/02 09:38:38;;;;;;;10.43;6.40;;;;;;;;;;5010751;28;20524;-70
2022/03/02 09:41:05;;;;;;;9.75;5.80;;;;;;;;;;5010165;28;20285;-70
2022/03/02 09:43:32;;;;;;;13.73;6.75;;;;;;;;;;5010827;28;20116;-68
2022/03/02 09:45:58;;;;;;;10.70;4.97;;;;;;;;;;5010234;28;20010;-70
2022/03/02 09:48:36;;;;;;;12.43;6.50;;;;;;;;;;5008899;28;20160;-68
2022/03/02 09:51:05;;;;;;;12.60;6.53;;;;;;;;;;5009959;28;20037;-70
2022/03/02 09:53:31;;;;;;;9.83;5.73;;;;;;;;;;5009227;28;20029;-68
2022/03/02 09:55:57;;;;;;;13.88;6.43;;;;;;;;;;5010357;28;20025;-68
2022/03/02 09:58:24;;;;;;;11.45;6.53;;;;;;;;;;5009971;28;20026;-68
2022/03/02 10:00:52;;;;;;;9.10;4.60;;;;;;;;;;5009925;28;20422;-68
2022/03/02 10:03:18;;;;;;;10.57;6.38;;;;;;;;;;5010227;28;20381;-68
2022/03/02 10:05:48;;;;;;;13.88;6.10;;;;;;;;;;5010566;28;20406;-68
2022/03/02 10:08:17;;;;;;;13.23;6.33;;;;;;;;;;5010573;28;20113;-68
2022/03/02 10:10:42;;;;;;;15.00;8.33;;;;;;;;;;5010823;28;20418;-67
2022/03/02 10:13:08;;;;;;;11.77;4.93;;;;;;;;;;5009933;28;20288;-67
2022/03/02 10:15:34;;;;;;;10.23;5.32;;;;;;;;;;5010393;28;20029;-67
2022/03/02 10:18:00;;;;;;;12.27;5.93;;;;;;;;;;5010236;28;20037;-68
2022/03/02 10:20:26;;;;;;;18.92;6.20;;;;;;;;;;5010215;28;20235;-68
2022/03/02 10:23:14;;;;;;;15.63;6.68;;;;;;;;;;5009737;28;20022;-68
2022/03/02 10:25:58;;;;;;;13.93;5.78;;;;;;;;;;5010564;28;20025;-68
2022/03/02 10:28:25;;;;;;;10.98;5.95;;;;;;;;;;5007631;28;20034;-66
2022/03/02 10:30:58;;;;;;;11.60;5.30;;;;;;;;;;5005790;28;20014;-68
2022/03/02 10:33:25;;;;;;;9.70;5.95;;;;;;;;;;5010281;28;20017;-68
2022/03/02 10:35:51;;;;;;;12.32;5.82;;;;;;;;;;5009815;28;20021;-68
2022/03/02 10:38:22;;;;;;;16.65;7.53;;;;;;;;;;5010290;28;20479;-68
2022/03/02 10:40:48;;;;;;;16.00;6.43;;;;;;;;;;5009601;28;20132;-69
2022/03/02 10:43:18;;;;;;;10.70;4.57;;;;;;;;;;5009364;28;20014;-68
2022/03/02 10:45:46;;;;;;;12.07;5.93;;;;;;;;;;5009515;28;20517;-69
2022/03/02 10:48:12;;;;;;;12.13;6.93;;;;;;;;;;5009685;28;20265;-69
2022/03/02 10:50:39;;;;;;;11.48;6.50;;;;;;;;;;5010878;28;20026;-68
2022/03/02 10:53:05;;;;;;;7.60;4.22;;;;;;;;;;5013714;28;20146;-69
2022/03/02 10:55:31;;;;;;;14.35;6.25;;;;;;;;;;5012975;28;20022;-68
2022/03/02 10:58:00;;;;;;;6.47;3.33;;;;;;;;;;5012676;28;20096;-68
2022/03/02 11:00:25;;;;;;;14.25;6.75;;;;;;;;;;5012491;28;20021;-69
2022/03/02 11:02:57;;;;;;;10.48;6.63;;;;;;;;;;5013288;28;20093;-70
2022/03/02 11:05:22;;;;;;;13.18;7.20;;;;;;;;;;5013422;28;20048;-69
2022/03/02 11:07:47;;;;;;;11.10;6.72;;;;;;;;;;5013452;28;20661;-69
2022/03/02 11:10:14;;;;;;;15.70;6.82;;;;;;;;;;5014818;28;20112;-69
2022/03/02 11:12:41;;;;;;;12.40;6.82;;;;;;;;;;5015100;28;20018;-70
2022/03/02 11:15:07;;;;;;;11.88;6.63;;;;;;;;;;5012927;28;20437;-69
2022/03/02 11:17:33;;;;;;;11.88;6.10;;;;;;;;;;5013061;28;20030;-69
2022/03/02 11:20:04;;;;;;;11.77;5.43;;;;;;;;;;5012922;28;20018;-69
2022/03/02 11:22:29;;;;;;;8.80;6.13;;;;;;;;;;5012896;28;20025;-70
2022/03/02 11:24:55;;;;;;;10.17;5.60;;;;;;;;;;5012554;28;20072;-70
2022/03/02 11:27:35;;;;;;;14.05;6.22;;;;;;;;;;5012878;28;20265;-70
2022/03/02 11:30:21;;;;;;;12.75;6.18;;;;;;;;;;5012611;28;20014;-70
2022/03/02 11:32:47;;;;;;;10.30;6.38;;;;;;;;;;5006779;28;20034;-70
2022/03/02 11:35:14;;;;;;;10.30;6.25;;;;;;;;;;5012764;28;20017;-70
2022/03/02 11:37:40;;;;;;;10.27;5.35;;;;;;;;;;5013186;28;20645;-69
2022/03/02 11:40:07;;;;;;;12.07;5.80;;;;;;;;;;5012332;28;20040;-70
2022/03/02 11:42:34;;;;;;;9.75;5.95;;;;;;;;;;5012477;28;20059;-70
2022/03/02 11:45:01;;;;;;;10.45;5.85;;;;;;;;;;5011733;28;20083;-70
2022/03/02 11:47:39;;;;;;;11.95;6.00;;;;;;;;;;5009231;28;20034;-69
2022/03/02 11:50:07;;;;;;;9.30;5.03;;;;;;;;;;5012228;28;20032;-70
2022/03/02 11:52:33;;;;;;;8.25;5.40;;;;;;;;;;5012882;28;20474;-72
2022/03/02 11:55:00;;;;;;;9.70;6.07;;;;;;;;;;5013158;28;20136;-71
2022/03/02 11:57:27;;;;;;;9.77;5.78;;;;;;;;;;5012104;28;20119;-71
2022/03/02 12:00:09;;;;;;;8.98;5.25;;;;;;;;;;5011725;28;20129;-70
2022/03/02 12:02:45;;;;;;;11.50;5.53;;;;;;;;;;5011702;28;20030;-71
2022/03/02 12:05:11;;;;;;;9.27;5.05;;;;;;;;;;5012124;28;20032;-71
2022/03/02 12:07:36;;;;;;;8.93;5.35;;;;;;;;;;5012751;28;20026;-70
2022/03/02 12:10:01;;;;;;;10.37;5.40;;;;;;;;;;5007675;28;20032;-71
2022/03/02 12:12:26;;;;;;;8.85;5.45;;;;;;;;;;5004815;28;20264;-70
2022/03/02 12:14:54;;;;;;;9.38;5.07;;;;;;;;;;5011326;28;20022;-71
2022/03/02 12:17:23;;;;;;;14.88;6.25;;;;;;;;;;5002736;28;20026;-71
2022/03/02 12:19:50;;;;;;;8.77;5.20;;;;;;;;;;5003549;28;20084;-70
2022/03/02 12:22:17;;;;;;;8.80;5.22;;;;;;;;;;5011906;28;20517;-71
2022/03/02 12:24:44;;;;;;;7.82;5.75;;;;;;;;;;5011900;28;20037;-71
2022/03/02 12:27:10;;;;;;;8.88;4.30;;;;;;;;;;5012187;28;20040;-71
2022/03/02 12:29:37;;;;;;;14.55;5.95;;;;;;;;;;5011115;28;20036;-71
2022/03/02 12:32:04;;;;;;;8.30;4.38;;;;;;;;;;5011515;28;20018;-71
2022/03/02 12:34:31;;;;;;;7.65;4.85;;;;;;;;;;5011357;28;20359;-71
2022/03/02 12:36:56;;;;;;;8.48;5.53;;;;;;;;;;5010331;28;20058;-71
2022/03/02 12:39:21;;;;;;;10.02;5.93;;;;;;;;;;5011585;28;20488;-71
2022/03/02 12:41:46;;;;;;;9.77;6.80;;;;;;;;;;5011138;28;20026;-71
2022/03/02 12:44:12;;;;;;;5.40;3.33;;;;;;;;;;5010951;28;20540;-72
2022/03/02 12:46:38;;;;;;;10.18;5.40;;;;;;;;;;5011713;28;20037;-71
2022/03/02 12:49:04;;;;;;;11.98;5.30;;;;;;;;;;5011011;28;20018;-72
2022/03/02 12:51:31;;;;;;;5.70;2.95;;;;;;;;;;5011058;28;20071;-71
2022/03/02 12:53:57;;;;;;;10.57;5.80;;;;;;;;;;5011542;28;20026;-71
2022/03/02 12:56:22;;;;;;;9.70;5.18;;;;;;;;;;5010610;28;20030;-72
2022/03/02 12:58:48;;;;;;;10.48;5.47;;;;;;;;;;5009882;28;20466;-72
2022/03/02 13:01:13;;;;;;;11.82;4.90;;;;;;;;;;5009970;28;20105;-71
2022/03/02 13:03:42;;;;;;;9.55;6.03;;;;;;;;;;5011214;28;20033;-71
2022/03/02 13:06:08;;;;;;;10.47;5.93;;;;;;;;;;5011018;28;20379;-71
2022/03/02 13:08:37;;;;;;;8.18;4.88;;;;;;;;;;5011203;28;20263;-71
2022/03/02 13:11:03;;;;;;;15.35;6.22;;;;;;;;;;5010651;28;20021;-71
2022/03/02 13:13:33;;;;;;;10.10;5.25;;;;;;;;;;5010736;28;20026;-71
2022/03/02 13:16:13;;;;;;;8.40;4.97;;;;;;;;;;5010310;28;20036;-72
2022/03/02 13:18:38;;;;;;;;;;;;;;;;;;5009903;28;20029;-71
2022/03/02 13:21:03;;;;;;;11.32;5.20;;;;;;;;;;5010177;28;19909;-71
2022/03/02 13:23:29;;;;;;;11.15;6.10;;;;;;;;;;5010795;28;20032;-71
2022/03/02 13:26:00;;;;;;;9.93;5.80;;;;;;;;;;5009960;28;20505;-71
2022/03/02 13:28:26;;;;;;;12.32;6.10;;;;;;;;;;5010155;28;20284;-71
2022/03/02 13:31:12;;;;;;;12.32;6.22;;;;;;;;;;5010263;28;20022;-72
2022/03/02 13:33:55;;;;;;;8.63;5.80;;;;;;;;;;5010596;28;20042;-71
2022/03/02 13:36:39;;;;;;;8.77;4.10;;;;;;;;;;5010399;28;20039;-71
2022/03/02 13:39:10;;;;;;;11.45;5.53;;;;;;;;;;5001388;28;20426;-71
2022/03/02 13:41:35;;;;;;;;;;;;;;;;;;5010130;28;20116;-71
2022/03/02 13:44:18;;;;;;;8.43;5.28;;;;;;;;;;5010695;28;20044;-71
2022/03/02 13:46:43;;;;;;;9.52;5.82;;;;;;;;;;5010574;28;20109;-71
2022/03/02 13:49:08;;;;;;;8.48;5.38;;;;;;;;;;5010087;28;20171;-71
2022/03/02 13:51:47;;;;;;;10.10;5.40;;;;;;;;;;5030716;28;20022;-71
2022/03/02 13:54:24;;;;;;;9.68;5.80;;;;;;;;;;5016633;28;20260;-71
2022/03/02 13:56:49;;;;;;;12.95;5.93;;;;;;;;;;5010608;28;20109;-71
2022/03/02 13:59:16;;;;;;;10.35;5.72;;;;;;;;;;5010055;28;20453;-71
2022/03/02 14:01:41;;;;;;;8.57;5.40;;;;;;;;;;5010002;28;20018;-70
2022/03/02 14:04:07;;;;;;;9.90;4.97;;;;;;;;;;5009448;28;20021;-70
2022/03/02 14:06:37;;;;;;;12.55;5.25;;;;;;;;;;5010476;28;20045;-72
2022/03/02 14:09:10;;;;;;;10.57;5.37;;;;;;;;;;5010471;28;20486;-70
2022/03/02 14:11:38;;;;;;;9.80;5.82;;;;;;;;;;5010432;28;20811;-70
2022/03/02 14:14:05;;;;;;;12.43;5.45;;;;;;;;;;5010171;28;20026;-70
2022/03/02 14:16:30;;;;;;;10.80;5.20;;;;;;;;;;5008229;28;20104;-70
2022/03/02 14:19:03;;;;;;;9.30;5.45;;;;;;;;;;5009531;28;20053;-70
2022/03/02 14:21:28;;;;;;;17.55;5.28;;;;;;;;;;5010322;28;20041;-70
2022/03/02 14:23:54;;;;;;;8.33;5.07;;;;;;;;;;5010036;28;20080;-70
2022/03/02 14:26:19;;;;;;;9.27;5.45;;;;;;;;;;5013086;28;20300;-71
2022/03/02 14:28:44;;;;;;;8.02;4.78;;;;;;;;;;5014206;28;20021;-71
2022/03/02 14:31:09;;;;;;;8.82;5.03;;;;;;;;;;5013429;28;20076;-71
2022/03/02 14:33:35;;;;;;;8.82;4.82;;;;;;;;;;5014202;28;20599;-70